Black Sheep — ZGBS9 — position and weather

sailwx.info

Track history (hours):
 
Tides and Currents Weather Stations Pressure Air Temp Water Temp Dewpoint Dewpoint Depression Visibility Wind Speed Wind Dir Waves Ship Positions

Black Sheep

Last reported at 2014-Sep-18 01:32 UTC. Time now 2014-Sep-18 01:42 UTC.
Position N 41°00' W 072°17'.

Length 40 m; draft 2.5 m.

Type: Pleasure craft. MMSI: 319041200.

Date/timePositionNaut miles runAvg speedWind from/ knotsBaromVisibWave heightAir tempDewpointWater temp
2014-Sep-18 01:32N 41°00' W 072°17'0 0.0
2014-Sep-18 00:32N 41°00' W 072°17'0 0.0
2014-Sep-17 23:33N 41°00' W 072°17'0 0.0
2014-Sep-17 22:31N 41°00' W 072°17'0 0.0
2014-Sep-17 21:31N 41°00' W 072°17'0 0.0
2014-Sep-17 20:32N 41°00' W 072°17'0 0.0
2014-Sep-17 19:33N 41°00' W 072°17'0 0.0
2014-Sep-17 18:33N 41°00' W 072°17'0 0.0
2014-Sep-17 17:31N 41°00' W 072°17'0 0.0
2014-Sep-17 16:32N 41°00' W 072°17'0 0.0
2014-Sep-17 15:32N 41°00' W 072°17'0 0.0
2014-Sep-17 14:33N 41°00' W 072°17'0 0.0
2014-Sep-17 13:31N 41°00' W 072°17'0 0.0
2014-Sep-17 12:31N 41°00' W 072°17'0 0.0
2014-Sep-17 11:32N 41°00' W 072°17'0 0.0
2014-Sep-17 10:33N 41°00' W 072°17'0 0.0
2014-Sep-17 09:33N 41°00' W 072°17'0 0.0
2014-Sep-17 08:31N 41°00' W 072°17'0 0.0
2014-Sep-17 07:32N 41°00' W 072°17'0 0.0
2014-Sep-17 06:32N 41°00' W 072°17'0 0.0
2014-Sep-17 05:33N 41°00' W 072°17'0 0.0
2014-Sep-17 04:31N 41°00' W 072°17'0 0.0
2014-Sep-17 03:32N 41°00' W 072°17'0 0.0
2014-Sep-17 02:32N 41°00' W 072°17'0 0.0
2014-Sep-17 01:33N 41°00' W 072°17'0 0.0
2014-Sep-17 00:34N 41°00' W 072°17'0 0.0
2014-Sep-16 23:31N 41°00' W 072°17'0 0.0
2014-Sep-16 22:32N 41°00' W 072°17'0 0.0
2014-Sep-16 21:33N 41°00' W 072°17'0 0.0
2014-Sep-16 20:33N 41°00' W 072°17'0 0.0
2014-Sep-16 19:31N 41°00' W 072°17'0 0.0
2014-Sep-16 18:32N 41°00' W 072°17'0 0.0
2014-Sep-16 17:32N 41°00' W 072°17'0 0.0
2014-Sep-16 16:33N 41°00' W 072°17'0 0.0
2014-Sep-16 15:34N 41°00' W 072°17'0 0.0
2014-Sep-16 14:31N 41°00' W 072°17'0 0.0
2014-Sep-16 13:32N 41°00' W 072°17'0 0.0
2014-Sep-16 12:33N 41°00' W 072°17'0 0.0
2014-Sep-16 11:33N 41°00' W 072°17'0 0.0
2014-Sep-16 10:31N 41°00' W 072°17'0 0.0
2014-Sep-16 09:32N 41°00' W 072°17'0 0.0
2014-Sep-16 08:32N 41°00' W 072°17'0 0.0
2014-Sep-16 07:33N 41°00' W 072°17'0 0.0
2014-Sep-16 06:34N 41°00' W 072°17'0 0.0
2014-Sep-16 05:31N 41°00' W 072°17'0 0.0
2014-Sep-16 04:32N 41°00' W 072°17'0 0.0
2014-Sep-16 03:33N 41°00' W 072°17'0 0.0
2014-Sep-16 02:33N 41°00' W 072°17'0 0.0
2014-Sep-16 01:31N 41°00' W 072°17'0 0.0
2014-Sep-16 00:32N 41°00' W 072°17'0 0.0
2014-Sep-15 23:32N 41°00' W 072°17'0 0.0
2014-Sep-15 22:33N 41°00' W 072°17'0 0.0
2014-Sep-15 21:31N 41°00' W 072°17'0 0.0
2014-Sep-15 20:28N 41°00' W 072°17'0 0.0
2014-Sep-15 19:32N 41°00' W 072°17'0 0.0
2014-Sep-15 18:33N 41°00' W 072°17'0 0.0
2014-Sep-15 17:33N 41°00' W 072°17'7 7.2
2014-Sep-15 16:33N 41°07' W 072°13'1 1.5
2014-Sep-15 15:33N 41°08' W 072°13'2 1.8
2014-Sep-15 14:34N 41°06' W 072°13'7 6.9
2014-Sep-15 13:33N 41°00' W 072°18'0 0.0
2014-Sep-15 12:31N 41°00' W 072°18'0 0.0
2014-Sep-15 11:31N 41°00' W 072°18'0 0.0
2014-Sep-15 10:32N 41°00' W 072°18'0 0.0
2014-Sep-15 09:33N 41°00' W 072°18'0 0.0
2014-Sep-15 08:33N 41°00' W 072°18'0 0.0
2014-Sep-15 07:31N 41°00' W 072°18'0 0.0
2014-Sep-15 06:32N 41°00' W 072°18'0 0.0
2014-Sep-15 05:32N 41°00' W 072°18'0 0.0
2014-Sep-15 04:33N 41°00' W 072°18'0 0.0
2014-Sep-15 03:31N 41°00' W 072°18'0 0.0
2014-Sep-15 02:32N 41°00' W 072°18'0 0.0
2014-Sep-15 01:32N 41°00' W 072°18'0 0.0
2014-Sep-15 00:33N 41°00' W 072°18'0 0.0
2014-Sep-14 23:34N 41°00' W 072°18'0 0.0
2014-Sep-14 22:28N 41°00' W 072°18'0 0.0
2014-Sep-14 21:32N 41°00' W 072°18'0 0.0
2014-Sep-14 20:33N 41°00' W 072°18'0 0.0
2014-Sep-14 19:33N 41°00' W 072°18'0 0.0
2014-Sep-14 18:31N 41°00' W 072°18'0 0.0
2014-Sep-14 17:32N 41°00' W 072°18'0 0.0
2014-Sep-14 16:32N 41°00' W 072°18'0 0.0
2014-Sep-14 15:30N 41°00' W 072°18'0 0.0
2014-Sep-14 14:31N 41°00' W 072°18'0 0.0
2014-Sep-14 13:31N 41°00' W 072°18'0 0.0
2014-Sep-14 12:32N 41°00' W 072°18'0 0.0
2014-Sep-14 11:33N 41°00' W 072°18'0 0.0
2014-Sep-14 10:33N 41°00' W 072°18'0 0.0
2014-Sep-14 09:31N 41°00' W 072°18'0 0.0
2014-Sep-14 08:32N 41°00' W 072°18'0 0.0
2014-Sep-14 07:32N 41°00' W 072°18'0 0.0
2014-Sep-14 06:33N 41°00' W 072°18'0 0.0
2014-Sep-14 05:31N 41°00' W 072°18'0 0.0
2014-Sep-14 04:31N 41°00' W 072°18'0 0.0
2014-Sep-14 03:32N 41°00' W 072°18'0 0.0
2014-Sep-14 02:33N 41°00' W 072°18'0 0.0
2014-Sep-14 01:33N 41°00' W 072°18'0 0.0
2014-Sep-13 21:33N 41°00' W 072°18'0 0.0
2014-Sep-13 20:31N 41°00' W 072°18'0 0.0
2014-Sep-13 19:31N 41°00' W 072°18'0 0.0
2014-Sep-13 18:32N 41°00' W 072°18'0 0.0
2014-Sep-13 17:33N 41°00' W 072°18'0 0.0
2014-Sep-13 16:33N 41°00' W 072°18'0 0.0
2014-Sep-13 15:31N 41°00' W 072°18'0 0.0
2014-Sep-13 14:32N 41°00' W 072°18'0 0.0
2014-Sep-13 13:32N 41°00' W 072°18'0 0.0
2014-Sep-13 12:33N 41°00' W 072°18'0 0.0
2014-Sep-13 11:31N 41°00' W 072°18'0 0.0
2014-Sep-13 10:31N 41°00' W 072°18'0 0.0
2014-Sep-13 09:32N 41°00' W 072°18'0 0.0
2014-Sep-13 08:33N 41°00' W 072°18'0 0.0
2014-Sep-13 07:33N 41°00' W 072°18'0 0.0
2014-Sep-13 06:31N 41°00' W 072°18'0 0.0
2014-Sep-13 05:32N 41°00' W 072°18'0 0.0
2014-Sep-13 04:32N 41°00' W 072°18'0 0.0
2014-Sep-13 03:33N 41°00' W 072°18'0 0.0
2014-Sep-13 02:31N 41°00' W 072°18'0 0.0
2014-Sep-13 01:31N 41°00' W 072°18'0 0.0
2014-Sep-13 00:32N 41°00' W 072°18'0 0.0
2014-Sep-12 23:33N 41°00' W 072°18'0 0.0
2014-Sep-12 22:33N 41°00' W 072°18'0 0.0
2014-Sep-12 21:31N 41°00' W 072°18'0 0.0
2014-Sep-12 20:32N 41°00' W 072°18'0 0.0
2014-Sep-12 19:32N 41°00' W 072°18'2 1.9
2014-Sep-12 18:33N 41°02' W 072°16'1413.7
2014-Sep-12 17:34N 41°11' W 072°03'1615.9
2014-Sep-12 16:34N 41°17' W 071°43'1515.2
2014-Sep-12 15:33N 41°24' W 071°25'7 6.6
2014-Sep-12 14:32N 41°29' W 071°20'0 0.0
2014-Sep-12 13:17N 41°29' W 071°20'0 0.0
2014-Sep-12 12:30N 41°29' W 071°20'0 0.0
2014-Sep-12 11:31N 41°29' W 071°20'0 0.0
2014-Sep-12 10:31N 41°29' W 071°20'0 0.0
2014-Sep-12 09:32N 41°29' W 071°20'0 0.0
2014-Sep-12 08:33N 41°29' W 071°20'0 0.0
2014-Sep-12 07:33N 41°29' W 071°20'0 0.0
2014-Sep-12 06:31N 41°29' W 071°20'0 0.0
2014-Sep-12 05:32N 41°29' W 071°20'0 0.0
2014-Sep-12 04:26N 41°29' W 071°20'0 0.0
2014-Sep-12 03:33N 41°29' W 071°20'0 0.0
2014-Sep-12 02:31N 41°29' W 071°20'0 0.0
2014-Sep-12 01:22N 41°29' W 071°20'0 0.0
2014-Sep-12 00:26N 41°29' W 071°20'0 0.0
2014-Sep-11 23:27N 41°29' W 071°20'0 0.0
2014-Sep-11 22:33N 41°29' W 071°20'0 0.0
2014-Sep-11 21:22N 41°29' W 071°20'0 0.0
2014-Sep-11 20:32N 41°29' W 071°20'0 0.0
2014-Sep-11 19:32N 41°29' W 071°20'0 0.0
2014-Sep-11 18:33N 41°29' W 071°20'0 0.0
2014-Sep-11 17:28N 41°29' W 071°20'0 0.0
2014-Sep-11 16:31N 41°29' W 071°20'0 0.0
2014-Sep-11 15:32N 41°29' W 071°20'0 0.0
2014-Sep-11 14:24N 41°29' W 071°20'0 0.0
2014-Sep-11 13:30N 41°29' W 071°20'0 0.0
2014-Sep-11 12:31N 41°29' W 071°20'0 0.0
2014-Sep-11 11:32N 41°29' W 071°20'0 0.0
2014-Sep-11 10:32N 41°29' W 071°20'0 0.0
2014-Sep-11 09:33N 41°29' W 071°20'0 0.0
2014-Sep-11 08:28N 41°29' W 071°20'0 0.0
2014-Sep-11 07:31N 41°29' W 071°20'0 0.0
2014-Sep-11 06:29N 41°29' W 071°20'0 0.0
2014-Sep-11 05:33N 41°29' W 071°20'0 0.0
2014-Sep-11 04:27N 41°29' W 071°20'0 0.0
2014-Sep-11 03:31N 41°29' W 071°20'0 0.0
2014-Sep-11 02:20N 41°29' W 071°20'0 0.0
2014-Sep-11 01:27N 41°29' W 071°20'0 0.0
2014-Sep-11 00:33N 41°29' W 071°20'0 0.0
2014-Sep-10 23:31N 41°29' W 071°20'0 0.0
2014-Sep-10 22:29N 41°29' W 071°20'0 0.0
2014-Sep-10 21:32N 41°29' W 071°20'0 0.0
2014-Sep-10 20:33N 41°29' W 071°20'0 0.0
2014-Sep-10 19:33N 41°29' W 071°20'0 0.0
2014-Sep-10 18:31N 41°29' W 071°20'0 0.0
2014-Sep-10 17:32N 41°29' W 071°20'0 0.0
2014-Sep-10 16:32N 41°29' W 071°20'0 0.0
2014-Sep-10 15:27N 41°29' W 071°20'0 0.0
2014-Sep-10 14:31N 41°29' W 071°20'0 0.0
2014-Sep-10 13:29N 41°29' W 071°20'0 0.0
2014-Sep-10 12:32N 41°29' W 071°20'0 0.0
2014-Sep-10 11:24N 41°29' W 071°20'0 0.0
2014-Sep-10 09:28N 41°29' W 071°20'0 0.0
2014-Sep-10 08:32N 41°29' W 071°20'0 0.0
2014-Sep-10 07:33N 41°29' W 071°20'0 0.0
2014-Sep-10 06:30N 41°29' W 071°20'0 0.0
2014-Sep-10 05:28N 41°29' W 071°20'0 0.0
2014-Sep-10 04:32N 41°29' W 071°20'0 0.0
2014-Sep-10 03:26N 41°29' W 071°20'0 0.0
2014-Sep-10 02:30N 41°29' W 071°20'0 0.0
2014-Sep-10 01:28N 41°29' W 071°20'0 0.0
2014-Sep-10 00:31N 41°29' W 071°20'0 0.0
2014-Sep-09 23:32N 41°29' W 071°20'0 0.0
2014-Sep-09 22:27N 41°29' W 071°20'0 0.0
2014-Sep-09 21:33N 41°29' W 071°20'0 0.0
2014-Sep-09 20:28N 41°29' W 071°20'0 0.0
2014-Sep-09 19:08N 41°29' W 071°20'0 0.0
2014-Sep-09 18:29N 41°29' W 071°20'0 0.0
2014-Sep-09 17:33N 41°29' W 071°20'0 0.0
2014-Sep-09 16:31N 41°29' W 071°20'0 0.0
2014-Sep-09 15:28N 41°29' W 071°20'0 0.0
2014-Sep-09 13:06N 41°29' W 071°20'0 0.0
2014-Sep-09 12:30N 41°29' W 071°20'0 0.0
2014-Sep-09 11:31N 41°29' W 071°20'0 0.0
2014-Sep-09 10:14N 41°29' W 071°20'0 0.0
2014-Sep-09 09:23N 41°29' W 071°20'0 0.0
2014-Sep-09 08:30N 41°29' W 071°20'0 0.0
2014-Sep-09 07:22N 41°29' W 071°20'0 0.0
2014-Sep-09 06:31N 41°29' W 071°20'0 0.0
2014-Sep-09 05:32N 41°29' W 071°20'0 0.0
2014-Sep-09 04:33N 41°29' W 071°20'0 0.0
2014-Sep-09 03:18N 41°29' W 071°20'0 0.0
2014-Sep-09 02:25N 41°29' W 071°20'0 0.0
2014-Sep-09 01:32N 41°29' W 071°20'0 0.0
2014-Sep-09 00:32N 41°29' W 071°20'0 0.0
2014-Sep-08 23:30N 41°29' W 071°20'0 0.0
2014-Sep-08 22:31N 41°29' W 071°20'0 0.0
2014-Sep-08 21:25N 41°29' W 071°20'0 0.0
2014-Sep-08 20:26N 41°29' W 071°20'0 0.0
2014-Sep-08 19:33N 41°29' W 071°20'0 0.0
2014-Sep-08 18:30N 41°29' W 071°20'0 0.0
2014-Sep-08 17:31N 41°29' W 071°20'0 0.0
2014-Sep-08 16:32N 41°29' W 071°20'0 0.0
2014-Sep-08 15:32N 41°29' W 071°20'0 0.0
2014-Sep-08 14:30N 41°29' W 071°20'0 0.0
2014-Sep-08 13:25N 41°29' W 071°20'0 0.0
2014-Sep-08 12:08N 41°29' W 071°20'0 0.0
2014-Sep-08 11:29N 41°29' W 071°20'0 0.0
2014-Sep-08 10:33N 41°29' W 071°20'0 0.0
2014-Sep-08 09:33N 41°29' W 071°20'0 0.0
2014-Sep-08 08:31N 41°29' W 071°20'0 0.0
2014-Sep-08 07:32N 41°29' W 071°20'0 0.0
2014-Sep-08 06:32N 41°29' W 071°20'0 0.0
2014-Sep-08 05:33N 41°29' W 071°20'0 0.0
2014-Sep-08 04:22N 41°29' W 071°20'0 0.0
2014-Sep-08 03:25N 41°29' W 071°20'0 0.0
2014-Sep-08 02:23N 41°29' W 071°20'0 0.0
2014-Sep-08 01:33N 41°29' W 071°20'  
Track history (hours):
 
Tides and Currents Weather Stations Pressure Air Temp Water Temp Dewpoint Dewpoint Depression Visibility Wind Speed Wind Dir Waves Ship Positions

Black Sheep

Last reported at 2014-Sep-18 01:32 UTC. Time now 2014-Sep-18 01:42 UTC.
Position N 41°00' W 072°17'.

Length 40 m; draft 2.5 m.

Type: Pleasure craft. MMSI: 319041200.

Date/timePositionNaut miles runAvg speedWind from/ knotsBaromVisibWave heightAir tempDewpointWater temp
2014-Sep-18 01:32N 41°00' W 072°17'0 0.0
2014-Sep-18 00:32N 41°00' W 072°17'0 0.0
2014-Sep-17 23:33N 41°00' W 072°17'0 0.0
2014-Sep-17 22:31N 41°00' W 072°17'0 0.0
2014-Sep-17 21:31N 41°00' W 072°17'0 0.0
2014-Sep-17 20:32N 41°00' W 072°17'0 0.0
2014-Sep-17 19:33N 41°00' W 072°17'0 0.0
2014-Sep-17 18:33N 41°00' W 072°17'0 0.0
2014-Sep-17 17:31N 41°00' W 072°17'0 0.0
2014-Sep-17 16:32N 41°00' W 072°17'0 0.0
2014-Sep-17 15:32N 41°00' W 072°17'0 0.0
2014-Sep-17 14:33N 41°00' W 072°17'0 0.0
2014-Sep-17 13:31N 41°00' W 072°17'0 0.0
2014-Sep-17 12:31N 41°00' W 072°17'0 0.0
2014-Sep-17 11:32N 41°00' W 072°17'0 0.0
2014-Sep-17 10:33N 41°00' W 072°17'0 0.0
2014-Sep-17 09:33N 41°00' W 072°17'0 0.0
2014-Sep-17 08:31N 41°00' W 072°17'0 0.0
2014-Sep-17 07:32N 41°00' W 072°17'0 0.0
2014-Sep-17 06:32N 41°00' W 072°17'0 0.0
2014-Sep-17 05:33N 41°00' W 072°17'0 0.0
2014-Sep-17 04:31N 41°00' W 072°17'0 0.0
2014-Sep-17 03:32N 41°00' W 072°17'0 0.0
2014-Sep-17 02:32N 41°00' W 072°17'0 0.0
2014-Sep-17 01:33N 41°00' W 072°17'0 0.0
2014-Sep-17 00:34N 41°00' W 072°17'0 0.0
2014-Sep-16 23:31N 41°00' W 072°17'0 0.0
2014-Sep-16 22:32N 41°00' W 072°17'0 0.0
2014-Sep-16 21:33N 41°00' W 072°17'0 0.0
2014-Sep-16 20:33N 41°00' W 072°17'0 0.0
2014-Sep-16 19:31N 41°00' W 072°17'0 0.0
2014-Sep-16 18:32N 41°00' W 072°17'0 0.0
2014-Sep-16 17:32N 41°00' W 072°17'0 0.0
2014-Sep-16 16:33N 41°00' W 072°17'0 0.0
2014-Sep-16 15:34N 41°00' W 072°17'0 0.0
2014-Sep-16 14:31N 41°00' W 072°17'0 0.0
2014-Sep-16 13:32N 41°00' W 072°17'0 0.0
2014-Sep-16 12:33N 41°00' W 072°17'0 0.0
2014-Sep-16 11:33N 41°00' W 072°17'0 0.0
2014-Sep-16 10:31N 41°00' W 072°17'0 0.0
2014-Sep-16 09:32N 41°00' W 072°17'0 0.0
2014-Sep-16 08:32N 41°00' W 072°17'0 0.0
2014-Sep-16 07:33N 41°00' W 072°17'0 0.0
2014-Sep-16 06:34N 41°00' W 072°17'0 0.0
2014-Sep-16 05:31N 41°00' W 072°17'0 0.0
2014-Sep-16 04:32N 41°00' W 072°17'0 0.0
2014-Sep-16 03:33N 41°00' W 072°17'0 0.0
2014-Sep-16 02:33N 41°00' W 072°17'0 0.0
2014-Sep-16 01:31N 41°00' W 072°17'0 0.0
2014-Sep-16 00:32N 41°00' W 072°17'0 0.0
2014-Sep-15 23:32N 41°00' W 072°17'0 0.0
2014-Sep-15 22:33N 41°00' W 072°17'0 0.0
2014-Sep-15 21:31N 41°00' W 072°17'0 0.0
2014-Sep-15 20:28N 41°00' W 072°17'0 0.0
2014-Sep-15 19:32N 41°00' W 072°17'0 0.0
2014-Sep-15 18:33N 41°00' W 072°17'0 0.0
2014-Sep-15 17:33N 41°00' W 072°17'7 7.2
2014-Sep-15 16:33N 41°07' W 072°13'1 1.5
2014-Sep-15 15:33N 41°08' W 072°13'2 1.8
2014-Sep-15 14:34N 41°06' W 072°13'7 6.9
2014-Sep-15 13:33N 41°00' W 072°18'0 0.0
2014-Sep-15 12:31N 41°00' W 072°18'0 0.0
2014-Sep-15 11:31N 41°00' W 072°18'0 0.0
2014-Sep-15 10:32N 41°00' W 072°18'0 0.0
2014-Sep-15 09:33N 41°00' W 072°18'0 0.0
2014-Sep-15 08:33N 41°00' W 072°18'0 0.0
2014-Sep-15 07:31N 41°00' W 072°18'0 0.0
2014-Sep-15 06:32N 41°00' W 072°18'0 0.0
2014-Sep-15 05:32N 41°00' W 072°18'0 0.0
2014-Sep-15 04:33N 41°00' W 072°18'0 0.0
2014-Sep-15 03:31N 41°00' W 072°18'0 0.0
2014-Sep-15 02:32N 41°00' W 072°18'0 0.0
2014-Sep-15 01:32N 41°00' W 072°18'0 0.0
2014-Sep-15 00:33N 41°00' W 072°18'0 0.0
2014-Sep-14 23:34N 41°00' W 072°18'0 0.0
2014-Sep-14 22:28N 41°00' W 072°18'0 0.0
2014-Sep-14 21:32N 41°00' W 072°18'0 0.0
2014-Sep-14 20:33N 41°00' W 072°18'0 0.0
2014-Sep-14 19:33N 41°00' W 072°18'0 0.0
2014-Sep-14 18:31N 41°00' W 072°18'0 0.0
2014-Sep-14 17:32N 41°00' W 072°18'0 0.0
2014-Sep-14 16:32N 41°00' W 072°18'0 0.0
2014-Sep-14 15:30N 41°00' W 072°18'0 0.0
2014-Sep-14 14:31N 41°00' W 072°18'0 0.0
2014-Sep-14 13:31N 41°00' W 072°18'0 0.0
2014-Sep-14 12:32N 41°00' W 072°18'0 0.0
2014-Sep-14 11:33N 41°00' W 072°18'0 0.0
2014-Sep-14 10:33N 41°00' W 072°18'0 0.0
2014-Sep-14 09:31N 41°00' W 072°18'0 0.0
2014-Sep-14 08:32N 41°00' W 072°18'0 0.0
2014-Sep-14 07:32N 41°00' W 072°18'0 0.0
2014-Sep-14 06:33N 41°00' W 072°18'0 0.0
2014-Sep-14 05:31N 41°00' W 072°18'0 0.0
2014-Sep-14 04:31N 41°00' W 072°18'0 0.0
2014-Sep-14 03:32N 41°00' W 072°18'0 0.0
2014-Sep-14 02:33N 41°00' W 072°18'0 0.0
2014-Sep-14 01:33N 41°00' W 072°18'0 0.0
2014-Sep-13 21:33N 41°00' W 072°18'0 0.0
2014-Sep-13 20:31N 41°00' W 072°18'0 0.0
2014-Sep-13 19:31N 41°00' W 072°18'0 0.0
2014-Sep-13 18:32N 41°00' W 072°18'0 0.0
2014-Sep-13 17:33N 41°00' W 072°18'0 0.0
2014-Sep-13 16:33N 41°00' W 072°18'0 0.0
2014-Sep-13 15:31N 41°00' W 072°18'0 0.0
2014-Sep-13 14:32N 41°00' W 072°18'0 0.0
2014-Sep-13 13:32N 41°00' W 072°18'0 0.0
2014-Sep-13 12:33N 41°00' W 072°18'0 0.0
2014-Sep-13 11:31N 41°00' W 072°18'0 0.0
2014-Sep-13 10:31N 41°00' W 072°18'0 0.0
2014-Sep-13 09:32N 41°00' W 072°18'0 0.0
2014-Sep-13 08:33N 41°00' W 072°18'0 0.0
2014-Sep-13 07:33N 41°00' W 072°18'0 0.0
2014-Sep-13 06:31N 41°00' W 072°18'0 0.0
2014-Sep-13 05:32N 41°00' W 072°18'0 0.0
2014-Sep-13 04:32N 41°00' W 072°18'0 0.0
2014-Sep-13 03:33N 41°00' W 072°18'0 0.0
2014-Sep-13 02:31N 41°00' W 072°18'0 0.0
2014-Sep-13 01:31N 41°00' W 072°18'0 0.0
2014-Sep-13 00:32N 41°00' W 072°18'0 0.0
2014-Sep-12 23:33N 41°00' W 072°18'0 0.0
2014-Sep-12 22:33N 41°00' W 072°18'0 0.0
2014-Sep-12 21:31N 41°00' W 072°18'0 0.0
2014-Sep-12 20:32N 41°00' W 072°18'0 0.0
2014-Sep-12 19:32N 41°00' W 072°18'2 1.9
2014-Sep-12 18:33N 41°02' W 072°16'1413.7
2014-Sep-12 17:34N 41°11' W 072°03'1615.9
2014-Sep-12 16:34N 41°17' W 071°43'1515.2
2014-Sep-12 15:33N 41°24' W 071°25'7 6.6
2014-Sep-12 14:32N 41°29' W 071°20'0 0.0
2014-Sep-12 13:17N 41°29' W 071°20'0 0.0
2014-Sep-12 12:30N 41°29' W 071°20'0 0.0
2014-Sep-12 11:31N 41°29' W 071°20'0 0.0
2014-Sep-12 10:31N 41°29' W 071°20'0 0.0
2014-Sep-12 09:32N 41°29' W 071°20'0 0.0
2014-Sep-12 08:33N 41°29' W 071°20'0 0.0
2014-Sep-12 07:33N 41°29' W 071°20'0 0.0
2014-Sep-12 06:31N 41°29' W 071°20'0 0.0
2014-Sep-12 05:32N 41°29' W 071°20'0 0.0
2014-Sep-12 04:26N 41°29' W 071°20'0 0.0
2014-Sep-12 03:33N 41°29' W 071°20'0 0.0
2014-Sep-12 02:31N 41°29' W 071°20'0 0.0
2014-Sep-12 01:22N 41°29' W 071°20'0 0.0
2014-Sep-12 00:26N 41°29' W 071°20'0 0.0
2014-Sep-11 23:27N 41°29' W 071°20'0 0.0
2014-Sep-11 22:33N 41°29' W 071°20'0 0.0
2014-Sep-11 21:22N 41°29' W 071°20'0 0.0
2014-Sep-11 20:32N 41°29' W 071°20'0 0.0
2014-Sep-11 19:32N 41°29' W 071°20'0 0.0
2014-Sep-11 18:33N 41°29' W 071°20'0 0.0
2014-Sep-11 17:28N 41°29' W 071°20'0 0.0
2014-Sep-11 16:31N 41°29' W 071°20'0 0.0
2014-Sep-11 15:32N 41°29' W 071°20'0 0.0
2014-Sep-11 14:24N 41°29' W 071°20'0 0.0
2014-Sep-11 13:30N 41°29' W 071°20'0 0.0
2014-Sep-11 12:31N 41°29' W 071°20'0 0.0
2014-Sep-11 11:32N 41°29' W 071°20'0 0.0
2014-Sep-11 10:32N 41°29' W 071°20'0 0.0
2014-Sep-11 09:33N 41°29' W 071°20'0 0.0
2014-Sep-11 08:28N 41°29' W 071°20'0 0.0
2014-Sep-11 07:31N 41°29' W 071°20'0 0.0
2014-Sep-11 06:29N 41°29' W 071°20'0 0.0
2014-Sep-11 05:33N 41°29' W 071°20'0 0.0
2014-Sep-11 04:27N 41°29' W 071°20'0 0.0
2014-Sep-11 03:31N 41°29' W 071°20'0 0.0
2014-Sep-11 02:20N 41°29' W 071°20'0 0.0
2014-Sep-11 01:27N 41°29' W 071°20'0 0.0
2014-Sep-11 00:33N 41°29' W 071°20'0 0.0
2014-Sep-10 23:31N 41°29' W 071°20'0 0.0
2014-Sep-10 22:29N 41°29' W 071°20'0 0.0
2014-Sep-10 21:32N 41°29' W 071°20'0 0.0
2014-Sep-10 20:33N 41°29' W 071°20'0 0.0
2014-Sep-10 19:33N 41°29' W 071°20'0 0.0
2014-Sep-10 18:31N 41°29' W 071°20'0 0.0
2014-Sep-10 17:32N 41°29' W 071°20'0 0.0
2014-Sep-10 16:32N 41°29' W 071°20'0 0.0
2014-Sep-10 15:27N 41°29' W 071°20'0 0.0
2014-Sep-10 14:31N 41°29' W 071°20'0 0.0
2014-Sep-10 13:29N 41°29' W 071°20'0 0.0
2014-Sep-10 12:32N 41°29' W 071°20'0 0.0
2014-Sep-10 11:24N 41°29' W 071°20'0 0.0
2014-Sep-10 09:28N 41°29' W 071°20'0 0.0
2014-Sep-10 08:32N 41°29' W 071°20'0 0.0
2014-Sep-10 07:33N 41°29' W 071°20'0 0.0
2014-Sep-10 06:30N 41°29' W 071°20'0 0.0
2014-Sep-10 05:28N 41°29' W 071°20'0 0.0
2014-Sep-10 04:32N 41°29' W 071°20'0 0.0
2014-Sep-10 03:26N 41°29' W 071°20'0 0.0
2014-Sep-10 02:30N 41°29' W 071°20'0 0.0
2014-Sep-10 01:28N 41°29' W 071°20'0 0.0
2014-Sep-10 00:31N 41°29' W 071°20'0 0.0
2014-Sep-09 23:32N 41°29' W 071°20'0 0.0
2014-Sep-09 22:27N 41°29' W 071°20'0 0.0
2014-Sep-09 21:33N 41°29' W 071°20'0 0.0
2014-Sep-09 20:28N 41°29' W 071°20'0 0.0
2014-Sep-09 19:08N 41°29' W 071°20'0 0.0
2014-Sep-09 18:29N 41°29' W 071°20'0 0.0
2014-Sep-09 17:33N 41°29' W 071°20'0 0.0
2014-Sep-09 16:31N 41°29' W 071°20'0 0.0
2014-Sep-09 15:28N 41°29' W 071°20'0 0.0
2014-Sep-09 13:06N 41°29' W 071°20'0 0.0
2014-Sep-09 12:30N 41°29' W 071°20'0 0.0
2014-Sep-09 11:31N 41°29' W 071°20'0 0.0
2014-Sep-09 10:14N 41°29' W 071°20'0 0.0
2014-Sep-09 09:23N 41°29' W 071°20'0 0.0
2014-Sep-09 08:30N 41°29' W 071°20'0 0.0
2014-Sep-09 07:22N 41°29' W 071°20'0 0.0
2014-Sep-09 06:31N 41°29' W 071°20'0 0.0
2014-Sep-09 05:32N 41°29' W 071°20'0 0.0
2014-Sep-09 04:33N 41°29' W 071°20'0 0.0
2014-Sep-09 03:18N 41°29' W 071°20'0 0.0
2014-Sep-09 02:25N 41°29' W 071°20'0 0.0
2014-Sep-09 01:32N 41°29' W 071°20'0 0.0
2014-Sep-09 00:32N 41°29' W 071°20'0 0.0
2014-Sep-08 23:30N 41°29' W 071°20'0 0.0
2014-Sep-08 22:31N 41°29' W 071°20'0 0.0
2014-Sep-08 21:25N 41°29' W 071°20'0 0.0
2014-Sep-08 20:26N 41°29' W 071°20'0 0.0
2014-Sep-08 19:33N 41°29' W 071°20'0 0.0
2014-Sep-08 18:30N 41°29' W 071°20'0 0.0
2014-Sep-08 17:31N 41°29' W 071°20'0 0.0
2014-Sep-08 16:32N 41°29' W 071°20'0 0.0
2014-Sep-08 15:32N 41°29' W 071°20'0 0.0
2014-Sep-08 14:30N 41°29' W 071°20'0 0.0
2014-Sep-08 13:25N 41°29' W 071°20'0 0.0
2014-Sep-08 12:08N 41°29' W 071°20'0 0.0
2014-Sep-08 11:29N 41°29' W 071°20'0 0.0
2014-Sep-08 10:33N 41°29' W 071°20'0 0.0
2014-Sep-08 09:33N 41°29' W 071°20'0 0.0
2014-Sep-08 08:31N 41°29' W 071°20'0 0.0
2014-Sep-08 07:32N 41°29' W 071°20'0 0.0
2014-Sep-08 06:32N 41°29' W 071°20'0 0.0
2014-Sep-08 05:33N 41°29' W 071°20'0 0.0
2014-Sep-08 04:22N 41°29' W 071°20'0 0.0
2014-Sep-08 03:25N 41°29' W 071°20'0 0.0
2014-Sep-08 02:23N 41°29' W 071°20'0 0.0
2014-Sep-08 01:33N 41°29' W 071°20'  

Dump ship's entire track history